Eko 2 — SY9957 — position and weather

sailwx.info

Track history (hours):
 
Tides and Currents Weather Stations Pressure Air Temp Water Temp Dewpoint Dewpoint Depression Visibility Wind Speed Wind Dir Waves Ship Positions

Eko 2

Last reported at 2016-Dec-06 15:03 UTC. Time now 2016-Dec-07 16:20 UTC.
Position N 37°04' E 025°01'.

Length 89 m; draft 4.3 m.

Type: Ship (hazmat cat A). MMSI: 240827000.

Date/timePositionNaut miles runAvg speedWind from/ knotsBaromVisibWave heightAir tempDewpointWater temp
2016-Dec-06 15:03N 37°04' E 025°01'5 9.3
2016-Dec-06 14:33N 37°06' E 025°05'3 0.1
2016-Dec-05 16:34N 37°05' E 025°02'29 1.2
2016-Dec-04 16:33N 37°06' E 025°38'1110.1
2016-Dec-04 15:27N 37°15' E 025°30'910.1
2016-Dec-04 14:33N 37°18' E 025°20'11 9.4
2016-Dec-04 13:20N 37°27' E 025°10'6 7.1
2016-Dec-04 12:32N 37°32' E 025°09'0 0.0
2016-Dec-04 11:32N 37°32' E 025°09'0 0.0
2016-Dec-04 10:32N 37°32' E 025°09'0 0.0
2016-Dec-04 09:32N 37°32' E 025°09'0 0.0
2016-Dec-04 08:32N 37°32' E 025°09'0 0.0
2016-Dec-04 07:32N 37°32' E 025°09'0 0.0
2016-Dec-04 06:32N 37°32' E 025°09'0 0.0
2016-Dec-04 05:32N 37°32' E 025°09'0 0.0
2016-Dec-04 04:32N 37°32' E 025°09'0 0.0
2016-Dec-04 03:32N 37°32' E 025°09'0 0.0
2016-Dec-04 02:32N 37°32' E 025°09'0 0.0
2016-Dec-04 01:32N 37°32' E 025°09'0 0.0
2016-Dec-04 00:32N 37°32' E 025°09'0 0.0
2016-Dec-03 23:32N 37°32' E 025°09'0 0.0
2016-Dec-03 22:32N 37°32' E 025°09'0 0.0
2016-Dec-03 21:32N 37°32' E 025°09'0 0.0
2016-Dec-03 20:32N 37°32' E 025°09'0 0.0
2016-Dec-03 19:32N 37°32' E 025°09'0 0.0
2016-Dec-03 18:32N 37°32' E 025°09'0 0.0
2016-Dec-03 17:32N 37°32' E 025°09'0 0.0
2016-Dec-03 16:32N 37°32' E 025°09'0 0.0
2016-Dec-03 15:34N 37°32' E 025°09'0 0.0
2016-Dec-03 14:32N 37°32' E 025°09'0 0.0
2016-Dec-03 13:32N 37°32' E 025°09'0 0.0
2016-Dec-03 12:32N 37°32' E 025°09'0 0.0
2016-Dec-03 11:33N 37°32' E 025°09'10 8.7
2016-Dec-03 10:24N 37°31' E 025°22'  
2016-Nov-29 07:16N 37°12' E 025°49'2110.8
2016-Nov-29 05:22N 37°08' E 025°24'3 3.6
2016-Nov-29 04:33N 37°06' E 025°21'0 0.1
2016-Nov-29 03:33N 37°06' E 025°22'0 0.0
2016-Nov-29 02:33N 37°06' E 025°22'0 0.0
2016-Nov-29 01:33N 37°06' E 025°22'0 0.0
2016-Nov-29 00:31N 37°06' E 025°22'1 0.3
2016-Nov-28 22:24N 37°06' E 025°22'0 0.6
2016-Nov-28 21:33N 37°06' E 025°22'1 0.6
2016-Nov-28 20:32N 37°06' E 025°22'0 0.0
2016-Nov-28 19:29N 37°06' E 025°22'0 0.0
2016-Nov-28 18:32N 37°06' E 025°22'1 0.8
2016-Nov-28 17:29N 37°06' E 025°21'0 0.0
2016-Nov-28 16:32N 37°06' E 025°21'0 0.0
2016-Nov-28 15:32N 37°06' E 025°21'0 0.0
2016-Nov-28 14:32N 37°06' E 025°21'0 0.0
2016-Nov-28 13:33N 37°06' E 025°21'6 6.4
2016-Nov-28 12:33N 37°11' E 025°16'4 0.3
2016-Nov-27 23:31N 37°09' E 025°11'1111.6
2016-Nov-27 22:33N 37°12' E 025°25'1111.0
2016-Nov-27 21:33N 37°10' E 025°38'  
Track history (hours):
 
Tides and Currents Weather Stations Pressure Air Temp Water Temp Dewpoint Dewpoint Depression Visibility Wind Speed Wind Dir Waves Ship Positions

Eko 2

Last reported at 2016-Dec-06 15:03 UTC. Time now 2016-Dec-07 16:20 UTC.
Position N 37°04' E 025°01'.

Length 89 m; draft 4.3 m.

Type: Ship (hazmat cat A). MMSI: 240827000.

Date/timePositionNaut miles runAvg speedWind from/ knotsBaromVisibWave heightAir tempDewpointWater temp
2016-Dec-06 15:03N 37°04' E 025°01'5 9.3
2016-Dec-06 14:33N 37°06' E 025°05'3 0.1
2016-Dec-05 16:34N 37°05' E 025°02'29 1.2
2016-Dec-04 16:33N 37°06' E 025°38'1110.1
2016-Dec-04 15:27N 37°15' E 025°30'910.1
2016-Dec-04 14:33N 37°18' E 025°20'11 9.4
2016-Dec-04 13:20N 37°27' E 025°10'6 7.1
2016-Dec-04 12:32N 37°32' E 025°09'0 0.0
2016-Dec-04 11:32N 37°32' E 025°09'0 0.0
2016-Dec-04 10:32N 37°32' E 025°09'0 0.0
2016-Dec-04 09:32N 37°32' E 025°09'0 0.0
2016-Dec-04 08:32N 37°32' E 025°09'0 0.0
2016-Dec-04 07:32N 37°32' E 025°09'0 0.0
2016-Dec-04 06:32N 37°32' E 025°09'0 0.0
2016-Dec-04 05:32N 37°32' E 025°09'0 0.0
2016-Dec-04 04:32N 37°32' E 025°09'0 0.0
2016-Dec-04 03:32N 37°32' E 025°09'0 0.0
2016-Dec-04 02:32N 37°32' E 025°09'0 0.0
2016-Dec-04 01:32N 37°32' E 025°09'0 0.0
2016-Dec-04 00:32N 37°32' E 025°09'0 0.0
2016-Dec-03 23:32N 37°32' E 025°09'0 0.0
2016-Dec-03 22:32N 37°32' E 025°09'0 0.0
2016-Dec-03 21:32N 37°32' E 025°09'0 0.0
2016-Dec-03 20:32N 37°32' E 025°09'0 0.0
2016-Dec-03 19:32N 37°32' E 025°09'0 0.0
2016-Dec-03 18:32N 37°32' E 025°09'0 0.0
2016-Dec-03 17:32N 37°32' E 025°09'0 0.0
2016-Dec-03 16:32N 37°32' E 025°09'0 0.0
2016-Dec-03 15:34N 37°32' E 025°09'0 0.0
2016-Dec-03 14:32N 37°32' E 025°09'0 0.0
2016-Dec-03 13:32N 37°32' E 025°09'0 0.0
2016-Dec-03 12:32N 37°32' E 025°09'0 0.0
2016-Dec-03 11:33N 37°32' E 025°09'10 8.7
2016-Dec-03 10:24N 37°31' E 025°22'  
2016-Nov-29 07:16N 37°12' E 025°49'2110.8
2016-Nov-29 05:22N 37°08' E 025°24'3 3.6
2016-Nov-29 04:33N 37°06' E 025°21'0 0.1
2016-Nov-29 03:33N 37°06' E 025°22'0 0.0
2016-Nov-29 02:33N 37°06' E 025°22'0 0.0
2016-Nov-29 01:33N 37°06' E 025°22'0 0.0
2016-Nov-29 00:31N 37°06' E 025°22'1 0.3
2016-Nov-28 22:24N 37°06' E 025°22'0 0.6
2016-Nov-28 21:33N 37°06' E 025°22'1 0.6
2016-Nov-28 20:32N 37°06' E 025°22'0 0.0
2016-Nov-28 19:29N 37°06' E 025°22'0 0.0
2016-Nov-28 18:32N 37°06' E 025°22'1 0.8
2016-Nov-28 17:29N 37°06' E 025°21'0 0.0
2016-Nov-28 16:32N 37°06' E 025°21'0 0.0
2016-Nov-28 15:32N 37°06' E 025°21'0 0.0
2016-Nov-28 14:32N 37°06' E 025°21'0 0.0
2016-Nov-28 13:33N 37°06' E 025°21'6 6.4
2016-Nov-28 12:33N 37°11' E 025°16'4 0.3
2016-Nov-27 23:31N 37°09' E 025°11'1111.6
2016-Nov-27 22:33N 37°12' E 025°25'1111.0
2016-Nov-27 21:33N 37°10' E 025°38'  

Dump ship's entire track history